Etusivu
METAR-TAF:

METAR-TAF

Lentoasemat :

Glasgow Municipal Airport

Glasgow, Kentucky, Yhdysvallat

Leveyspiiri: 37-01-54N, Pituuspiiri: 085-57-13W, korkeus merenpinnasta: 218 m

Tämänhetkinen sää

Tämä raportti tehtiin 17 minuuttia sitten, kello 02.55 UTC
Tuuli 10 kn etelästä/lounaasta puuskistuen 20 kn:hen
Lämpötila 14°C
Kosteus 72%
Ilmanpaine 1015 hPa
Näkyvyys: 16.1 km
Pilvistä 2600 ft:n korkeudessa

METAR: KGLW 180255Z AUTO 21010G20KT 10SM OVC026 14/09 A2998 RMK AO2 T01380085

Aika: 21:12 (03:12 UTC)


TAF: puuttuu

Säähavainnot ja -ennusteet yli 4000 lentoasemalta (METAR- ja TAF-raportit).

Käytössä olevat sääasemat on merkitty karttaan keltaisilla ja punaisilla pisteillä.

Aseta hiiri pisteen päälle nähdäksesi sääaseman nimen.

Klikkaa sitten nähdäksesi säähavainnot ja -ennusteet.

Kartan vaihtaminen: klikkaa mustalla rastilla varustettuja vihreitä pisteitä, niin voit zoomata sisään; viivalla varustettua vihreää pistettä, niin voit zoomata ulos tai vihreitä nuolia, niin pääset viereisille kartoille.


METAR-TAF: